createdAt,value
2019-04-25T00:01:43.923Z,13.61
2019-04-25T00:04:11.724Z,13.65
2019-04-25T00:06:38.589Z,13.69
2019-04-25T00:09:09.170Z,13.57
2019-04-25T00:11:35.001Z,13.59
2019-04-25T00:14:01.589Z,13.55
2019-04-25T00:16:31.113Z,13.56
2019-04-25T00:18:57.141Z,13.52
2019-04-25T00:21:37.081Z,13.47
2019-04-25T00:24:08.405Z,13.49
2019-04-25T00:26:38.996Z,13.46
2019-04-25T00:29:05.032Z,13.38
2019-04-25T00:31:31.899Z,13.39
2019-04-25T00:33:57.968Z,13.38
2019-04-25T00:36:23.827Z,13.30
2019-04-25T00:38:50.218Z,13.21
2019-04-25T00:41:17.519Z,13.25
2019-04-25T00:43:44.082Z,13.31
2019-04-25T00:46:11.385Z,13.30
2019-04-25T00:48:37.385Z,13.28
2019-04-25T00:51:03.406Z,13.19
2019-04-25T00:53:29.245Z,13.18
2019-04-25T00:55:55.193Z,13.21
2019-04-25T00:58:23.019Z,13.21
2019-04-25T01:00:56.923Z,13.17
2019-04-25T01:03:24.738Z,13.01
2019-04-25T01:05:53.277Z,12.93
2019-04-25T01:08:18.723Z,12.95
2019-04-25T01:10:44.757Z,13.07
2019-04-25T01:13:11.474Z,13.11
2019-04-25T01:15:37.557Z,13.15
2019-04-25T01:18:03.684Z,13.14
2019-04-25T01:20:29.579Z,13.18
2019-04-25T01:22:57.762Z,13.20
2019-04-25T01:25:23.452Z,13.29
2019-04-25T01:27:49.775Z,13.29
2019-04-25T01:30:19.031Z,13.34
2019-04-25T01:32:44.979Z,13.33
2019-04-25T01:35:13.995Z,13.29
2019-04-25T01:37:43.725Z,13.34
2019-04-25T01:40:14.679Z,13.36
2019-04-25T01:42:43.835Z,13.34
2019-04-25T01:45:10.211Z,13.40
2019-04-25T01:47:36.067Z,13.46
2019-04-25T01:50:04.001Z,13.43
2019-04-25T01:52:30.063Z,13.43
2019-04-25T01:54:56.266Z,13.43
2019-04-25T01:57:23.965Z,13.47
2019-04-25T01:59:49.959Z,13.51
2019-04-25T02:02:17.702Z,13.43
2019-04-25T02:04:44.367Z,13.41
2019-04-25T02:07:10.615Z,13.41
2019-04-25T02:09:36.764Z,13.35
2019-04-25T02:12:07.576Z,13.39
2019-04-25T02:14:33.747Z,13.38
2019-04-25T02:17:00.364Z,13.32
2019-04-25T02:19:26.386Z,13.29
2019-04-25T02:21:54.509Z,13.26
2019-04-25T02:24:20.346Z,13.20
2019-04-25T02:26:46.232Z,13.21
2019-04-25T02:29:13.591Z,13.23
2019-04-25T02:31:39.741Z,13.19
2019-04-25T02:34:08.343Z,13.17
2019-04-25T02:36:34.668Z,13.12
2019-04-25T02:39:03.448Z,13.13
2019-04-25T02:41:28.549Z,13.09
2019-04-25T02:43:59.982Z,13.03
2019-04-25T02:46:41.139Z,12.99
2019-04-25T02:49:09.758Z,12.93
2019-04-25T02:51:40.305Z,12.95
2019-04-25T02:54:08.072Z,12.92
2019-04-25T02:56:37.861Z,12.92
2019-04-25T02:59:03.548Z,12.85
2019-04-25T03:01:30.147Z,12.64
2019-04-25T03:03:57.423Z,12.81
2019-04-25T03:06:25.052Z,12.79
2019-04-25T03:08:51.175Z,12.84
2019-04-25T03:11:17.103Z,12.89
2019-04-25T03:13:44.157Z,12.83
2019-04-25T03:16:11.061Z,12.86
2019-04-25T03:18:39.159Z,12.87
2019-04-25T03:21:13.890Z,12.83
2019-04-25T03:23:37.733Z,12.75
2019-04-25T03:26:05.202Z,12.69
2019-04-25T03:28:33.992Z,12.71
2019-04-25T03:31:02.096Z,12.74
2019-04-25T03:33:28.120Z,12.71
2019-04-25T03:35:54.457Z,12.68
2019-04-25T03:38:20.541Z,12.62
2019-04-25T03:40:46.578Z,12.64
2019-04-25T03:43:14.838Z,12.62
2019-04-25T03:45:40.345Z,12.62
2019-04-25T03:48:06.475Z,12.54
2019-04-25T03:50:34.069Z,12.54
2019-04-25T03:53:00.125Z,12.48
2019-04-25T03:55:26.089Z,12.48
2019-04-25T03:57:51.908Z,12.41
2019-04-25T04:00:18.053Z,12.39
2019-04-25T04:02:44.383Z,12.38
2019-04-25T04:05:11.441Z,12.40
2019-04-25T04:07:37.428Z,12.38
2019-04-25T04:10:05.776Z,12.35
2019-04-25T04:12:33.913Z,12.34
2019-04-25T04:15:00.288Z,12.35
2019-04-25T04:17:28.036Z,12.27
2019-04-25T04:20:03.823Z,12.24
2019-04-25T04:22:37.638Z,12.24
2019-04-25T04:25:05.927Z,12.24
2019-04-25T04:27:31.820Z,12.28
2019-04-25T04:29:57.656Z,12.24
2019-04-25T04:32:24.208Z,12.22
2019-04-25T04:34:50.334Z,12.18
2019-04-25T04:37:16.354Z,12.23
2019-04-25T04:39:43.726Z,12.22
2019-04-25T04:42:09.727Z,12.23
2019-04-25T04:44:35.572Z,12.22
2019-04-25T04:47:01.953Z,12.22
2019-04-25T04:49:28.293Z,12.27
2019-04-25T04:51:54.255Z,12.31
2019-04-25T04:54:20.158Z,12.33
2019-04-25T04:56:46.046Z,12.36
2019-04-25T04:59:12.856Z,12.39
2019-04-25T05:01:58.486Z,12.52
2019-04-25T05:04:26.307Z,12.57
2019-04-25T05:06:54.104Z,12.62
2019-04-25T05:09:23.779Z,12.68
2019-04-25T05:11:49.615Z,12.71
2019-04-25T05:14:16.221Z,12.74
2019-04-25T05:16:43.198Z,12.81
2019-04-25T05:19:09.364Z,12.87
2019-04-25T05:21:35.283Z,12.95
2019-04-25T05:24:01.114Z,13.00
2019-04-25T05:26:27.077Z,13.06
2019-04-25T05:28:53.311Z,13.13
2019-04-25T05:31:25.712Z,13.17
2019-04-25T05:33:53.512Z,13.18
2019-04-25T05:36:19.737Z,13.27
2019-04-25T05:38:45.585Z,13.29
2019-04-25T05:41:14.788Z,13.24
2019-04-25T05:43:41.222Z,13.26
2019-04-25T05:46:07.323Z,13.25
2019-04-25T05:48:34.028Z,13.28
2019-04-25T05:51:00.003Z,13.20
2019-04-25T05:53:26.332Z,13.22
2019-04-25T05:55:52.158Z,13.26
2019-04-25T05:58:18.545Z,13.27
2019-04-25T06:00:44.737Z,13.31
2019-04-25T06:03:10.827Z,13.34
2019-04-25T06:05:36.758Z,13.39
2019-04-25T06:08:04.342Z,13.38
2019-04-25T06:10:38.185Z,13.43
2019-04-25T06:13:13.644Z,13.48
2019-04-25T06:15:40.313Z,13.55
2019-04-25T06:18:17.142Z,13.63
2019-04-25T06:20:44.287Z,13.66
2019-04-25T06:23:18.886Z,13.74
2019-04-25T06:25:45.282Z,13.81
2019-04-25T06:28:16.024Z,13.88
2019-04-25T06:30:41.864Z,13.95
2019-04-25T06:33:07.971Z,14.04
2019-04-25T06:35:35.687Z,14.08
2019-04-25T06:38:03.502Z,14.14
2019-04-25T06:40:30.679Z,14.17
2019-04-25T06:42:56.632Z,14.27
2019-04-25T06:45:26.692Z,14.35
2019-04-25T06:48:06.409Z,14.45
2019-04-25T06:50:34.115Z,14.52
2019-04-25T06:53:03.521Z,14.58
2019-04-25T06:55:31.174Z,14.66
2019-04-25T06:58:08.885Z,14.75
2019-04-25T07:00:28.440Z,14.89
2019-04-25T07:02:53.249Z,14.96
2019-04-25T07:05:30.499Z,15.09
2019-04-25T07:07:47.568Z,15.20
2019-04-25T07:10:14.009Z,15.32
2019-04-25T07:12:39.981Z,15.33
2019-04-25T07:15:08.225Z,15.40
2019-04-25T07:17:34.975Z,15.52
2019-04-25T07:20:04.608Z,15.57
2019-04-25T07:22:30.722Z,15.63
2019-04-25T07:24:56.541Z,15.68
2019-04-25T07:27:25.434Z,15.74
2019-04-25T07:29:53.939Z,15.81
2019-04-25T07:32:30.820Z,15.94
2019-04-25T07:34:55.924Z,16.05
2019-04-25T07:37:21.878Z,16.09
2019-04-25T07:39:48.141Z,16.14
2019-04-25T07:42:14.152Z,16.30
2019-04-25T07:44:49.773Z,16.42
2019-04-25T07:47:07.961Z,16.60
2019-04-25T07:49:34.841Z,16.82
2019-04-25T07:52:01.115Z,17.07
2019-04-25T07:54:27.879Z,17.14
2019-04-25T07:56:55.126Z,17.34
2019-04-25T07:59:21.126Z,17.48
2019-04-25T08:01:47.067Z,17.23
2019-04-25T08:04:13.678Z,17.41
2019-04-25T08:06:39.857Z,17.52
2019-04-25T08:09:08.470Z,17.79
2019-04-25T08:11:35.101Z,17.73
2019-04-25T08:14:07.051Z,17.90
2019-04-25T08:16:35.714Z,18.01
2019-04-25T08:19:03.954Z,18.09
2019-04-25T08:21:32.104Z,18.39
2019-04-25T08:23:59.964Z,18.41
2019-04-25T08:26:25.878Z,18.65
2019-04-25T08:28:55.783Z,18.28
2019-04-25T08:31:19.594Z,18.55
2019-04-25T08:33:46.630Z,18.87
2019-04-25T08:36:13.669Z,19.00
2019-04-25T08:38:40.296Z,19.01
2019-04-25T08:41:06.305Z,19.08
2019-04-25T08:43:34.226Z,19.01
2019-04-25T08:46:00.317Z,18.64
2019-04-25T08:48:28.102Z,19.17
2019-04-25T08:51:13.498Z,19.32
2019-04-25T08:53:45.065Z,19.37
2019-04-25T08:56:13.361Z,19.32
2019-04-25T08:58:43.653Z,19.64
2019-04-25T09:01:21.575Z,20.04
2019-04-25T09:03:55.568Z,20.29
2019-04-25T09:06:22.193Z,20.20
2019-04-25T09:08:48.065Z,20.24
2019-04-25T09:11:14.045Z,20.17
2019-04-25T09:13:39.874Z,20.50
2019-04-25T09:16:05.727Z,20.84
2019-04-25T09:18:31.597Z,20.75
2019-04-25T09:20:57.453Z,21.51
2019-04-25T09:23:23.714Z,21.22
2019-04-25T09:25:49.801Z,21.93
2019-04-25T09:28:15.632Z,21.50
2019-04-25T09:30:42.430Z,21.31
2019-04-25T09:33:08.952Z,21.17
2019-04-25T09:35:36.112Z,20.79
2019-04-25T09:38:03.453Z,21.13
2019-04-25T09:40:29.519Z,21.55
2019-04-25T09:42:57.254Z,21.83
2019-04-25T09:45:43.546Z,21.63
2019-04-25T09:51:07.507Z,21.71
2019-04-25T09:53:38.831Z,21.63
2019-04-25T09:56:04.225Z,21.64
2019-04-25T09:58:34.662Z,21.31
2019-04-25T10:01:03.809Z,21.98
2019-04-25T10:03:30.471Z,21.22
2019-04-25T10:05:56.299Z,20.99
2019-04-25T10:08:24.157Z,20.89
2019-04-25T10:10:50.230Z,20.97
2019-04-25T10:13:16.160Z,20.65
2019-04-25T10:16:03.933Z,20.50
2019-04-25T10:18:30.869Z,20.48
2019-04-25T10:20:57.006Z,20.41
2019-04-25T10:23:24.076Z,20.41
2019-04-25T10:25:50.232Z,20.57
2019-04-25T10:28:16.275Z,20.59
2019-04-25T10:30:43.514Z,20.41
2019-04-25T10:33:09.693Z,20.26
2019-04-25T10:35:46.643Z,20.91
2019-04-25T10:38:04.624Z,20.67
2019-04-25T10:40:30.732Z,20.56
2019-04-25T10:42:56.810Z,20.44
2019-04-25T10:45:24.269Z,20.55
2019-04-25T10:47:50.818Z,20.87
2019-04-25T10:50:16.872Z,21.35
2019-04-25T10:52:45.464Z,21.38
2019-04-25T10:55:11.200Z,21.97
2019-04-25T10:57:37.162Z,22.11
2019-04-25T11:00:09.628Z,22.42
2019-04-25T11:02:35.748Z,22.35
2019-04-25T11:05:04.770Z,21.85
2019-04-25T11:07:30.581Z,22.21
2019-04-25T11:09:56.422Z,22.38
2019-04-25T11:12:23.475Z,22.56
2019-04-25T11:14:49.645Z,22.88
2019-04-25T11:17:15.655Z,23.14
2019-04-25T11:19:42.486Z,23.06
2019-04-25T11:22:09.484Z,23.65
2019-04-25T11:24:35.670Z,23.57
2019-04-25T11:27:01.697Z,23.02
2019-04-25T11:29:28.136Z,22.72
2019-04-25T11:31:54.240Z,23.29
2019-04-25T11:34:21.209Z,22.99
2019-04-25T11:36:47.120Z,22.52
2019-04-25T11:39:24.355Z,22.24
2019-04-25T11:41:51.373Z,21.81
2019-04-25T11:44:17.264Z,21.82
2019-04-25T11:46:44.648Z,22.44
2019-04-25T11:49:15.077Z,22.53
2019-04-25T11:51:41.805Z,23.14
2019-04-25T11:54:08.601Z,23.54
2019-04-25T11:56:34.418Z,23.80
2019-04-25T11:59:00.271Z,23.77
2019-04-25T12:01:26.358Z,23.43
2019-04-25T12:03:52.692Z,23.14
2019-04-25T12:06:18.704Z,23.10
2019-04-25T12:08:46.508Z,22.60
2019-04-25T12:11:13.904Z,22.42
2019-04-25T12:13:40.081Z,21.82
2019-04-25T12:16:06.489Z,21.30
2019-04-25T12:18:33.901Z,20.92
2019-04-25T12:21:00.362Z,20.95
2019-04-25T12:23:26.252Z,20.93
2019-04-25T12:25:54.032Z,20.99
2019-04-25T12:28:19.860Z,20.70
2019-04-25T12:30:47.311Z,20.70
2019-04-25T12:33:21.065Z,20.79
2019-04-25T12:35:41.366Z,21.29
2019-04-25T12:38:07.214Z,21.22
2019-04-25T12:40:34.340Z,21.49
2019-04-25T12:43:00.326Z,21.27
2019-04-25T12:45:28.079Z,21.21
2019-04-25T12:47:59.361Z,21.13
2019-04-25T12:50:25.470Z,21.11
2019-04-25T12:52:51.421Z,21.11
2019-04-25T12:55:17.433Z,21.17
2019-04-25T12:57:43.285Z,21.48
2019-04-25T13:00:13.956Z,21.53
2019-04-25T13:02:40.155Z,21.50
2019-04-25T13:05:07.117Z,21.35
2019-04-25T13:07:33.129Z,21.15
2019-04-25T13:09:58.982Z,21.20
2019-04-25T13:12:25.165Z,21.27
2019-04-25T13:14:51.217Z,21.07
2019-04-25T13:17:17.069Z,20.97
2019-04-25T13:19:45.618Z,20.86
2019-04-25T13:22:11.944Z,20.18
2019-04-25T13:24:37.866Z,20.18
2019-04-25T13:27:06.138Z,20.29
2019-04-25T13:29:39.717Z,20.31
2019-04-25T13:32:22.835Z,20.13
2019-04-25T13:34:50.626Z,20.07
2019-04-25T13:37:16.665Z,20.07
2019-04-25T13:39:44.178Z,19.88
2019-04-25T13:42:11.609Z,19.96
2019-04-25T13:44:37.555Z,20.00
2019-04-25T13:47:04.602Z,20.13
2019-04-25T13:49:31.582Z,20.20
2019-04-25T13:51:57.640Z,20.33
2019-04-25T13:54:24.069Z,20.54
2019-04-25T13:56:51.060Z,20.72
2019-04-25T13:59:17.124Z,20.77
2019-04-25T14:01:44.200Z,20.47
2019-04-25T14:04:10.384Z,20.50
2019-04-25T14:06:36.305Z,20.54
2019-04-25T14:09:06.628Z,20.30
2019-04-25T14:11:34.180Z,20.30
2019-04-25T14:14:01.298Z,20.18
2019-04-25T14:16:41.072Z,19.91
2019-04-25T14:19:21.909Z,19.79
2019-04-25T14:21:48.425Z,19.64
2019-04-25T14:24:20.380Z,19.66
2019-04-25T14:26:42.244Z,19.70
2019-04-25T14:29:08.093Z,19.80
2019-04-25T14:31:44.813Z,19.65
2019-04-25T14:34:03.286Z,19.60
2019-04-25T14:36:30.251Z,19.59
2019-04-25T14:38:56.255Z,19.56
2019-04-25T14:41:22.376Z,19.49
2019-04-25T14:43:48.867Z,19.30
2019-04-25T14:46:14.917Z,19.12
2019-04-25T14:48:40.937Z,19.12
2019-04-25T14:51:06.920Z,18.97
2019-04-25T14:53:34.057Z,18.87
2019-04-25T14:56:06.792Z,18.71
2019-04-25T14:58:34.755Z,18.68
2019-04-25T15:01:00.789Z,18.75
2019-04-25T15:03:26.632Z,18.71
2019-04-25T15:05:52.604Z,18.74
2019-04-25T15:08:18.788Z,18.67
2019-04-25T15:10:44.629Z,18.79
2019-04-25T15:13:11.218Z,18.69
2019-04-25T15:15:37.248Z,18.61
2019-04-25T15:18:03.306Z,18.53
2019-04-25T15:20:30.149Z,18.48
2019-04-25T15:22:56.119Z,18.59
2019-04-25T15:25:22.320Z,18.74
2019-04-25T15:27:48.159Z,18.73
2019-04-25T15:30:16.220Z,18.73
2019-04-25T15:32:42.105Z,18.78
2019-04-25T15:35:09.943Z,18.51
2019-04-25T15:37:38.495Z,18.46
2019-04-25T15:40:07.607Z,18.68
2019-04-25T15:42:35.458Z,18.68
2019-04-25T15:45:12.202Z,18.64
2019-04-25T15:47:38.044Z,18.33
2019-04-25T15:50:04.968Z,18.18
2019-04-25T15:52:31.473Z,18.12
2019-04-25T15:55:06.909Z,18.00
2019-04-25T15:57:25.405Z,18.13
2019-04-25T15:59:51.239Z,18.29
2019-04-25T16:02:18.200Z,18.43
2019-04-25T16:04:44.058Z,18.49
2019-04-25T16:07:10.909Z,18.49
2019-04-25T16:09:36.741Z,18.34
2019-04-25T16:12:02.822Z,18.04
2019-04-25T16:14:28.647Z,17.84
2019-04-25T16:16:54.602Z,17.84
2019-04-25T16:19:20.542Z,17.69
2019-04-25T16:21:46.487Z,17.91
2019-04-25T16:24:12.839Z,18.04
2019-04-25T16:26:38.682Z,18.12
2019-04-25T16:29:04.826Z,18.33
2019-04-25T16:31:30.761Z,18.56
2019-04-25T16:33:56.612Z,19.06
2019-04-25T16:36:22.678Z,18.81
2019-04-25T16:38:48.628Z,18.92
2019-04-25T16:41:14.993Z,18.97
2019-04-25T16:43:43.225Z,19.21
2019-04-25T16:46:09.257Z,19.73
2019-04-25T16:48:35.686Z,19.22
2019-04-25T16:51:01.546Z,18.76
2019-04-25T16:53:27.697Z,18.74
2019-04-25T16:55:53.629Z,18.29
2019-04-25T16:58:19.592Z,18.43
2019-04-25T17:00:47.540Z,18.62
2019-04-25T17:03:14.612Z,18.69
2019-04-25T17:05:40.854Z,18.28
2019-04-25T17:08:07.199Z,18.25
2019-04-25T17:10:33.194Z,18.19
2019-04-25T17:12:59.166Z,17.98
2019-04-25T17:15:32.897Z,18.00
2019-04-25T17:18:06.948Z,17.94
2019-04-25T17:20:34.829Z,17.91
2019-04-25T17:23:02.567Z,17.87
2019-04-25T17:25:28.411Z,18.08
2019-04-25T17:27:54.463Z,18.22
2019-04-25T17:30:20.835Z,18.14
2019-04-25T17:32:53.874Z,18.04
2019-04-25T17:35:21.311Z,18.08
2019-04-25T17:37:52.311Z,17.95
2019-04-25T17:40:26.096Z,17.83
2019-04-25T17:42:51.918Z,17.79
2019-04-25T17:45:19.732Z,17.68
2019-04-25T17:47:54.349Z,17.67
2019-04-25T17:50:13.602Z,17.61
2019-04-25T17:52:40.632Z,17.35
2019-04-25T17:55:06.959Z,17.17
2019-04-25T17:57:33.073Z,17.06
2019-04-25T17:59:59.187Z,16.98
2019-04-25T18:02:25.107Z,17.00
2019-04-25T18:04:51.042Z,16.80
2019-04-25T18:07:16.971Z,16.76
2019-04-25T18:09:43.472Z,16.51
2019-04-25T18:12:09.691Z,16.54
2019-04-25T18:14:36.398Z,16.49
2019-04-25T18:17:02.738Z,16.43
2019-04-25T18:19:42.853Z,16.28
2019-04-25T18:22:10.784Z,16.20
2019-04-25T18:24:45.305Z,16.21
2019-04-25T18:27:13.399Z,16.16
2019-04-25T18:29:39.525Z,16.08
2019-04-25T18:32:05.760Z,16.16
2019-04-25T18:34:46.510Z,16.07
2019-04-25T18:37:20.728Z,16.04
2019-04-25T18:40:06.708Z,15.91
2019-04-25T18:42:44.167Z,15.92
2019-04-25T18:45:12.353Z,15.88
2019-04-25T18:47:38.301Z,15.81
2019-04-25T18:50:05.411Z,15.52
2019-04-25T18:52:45.212Z,15.32
2019-04-25T18:55:13.152Z,15.37
2019-04-25T18:57:45.478Z,15.33
2019-04-25T19:00:25.544Z,15.35
2019-04-25T19:02:53.319Z,15.21
2019-04-25T19:05:21.158Z,15.51
2019-04-25T19:07:47.407Z,15.31
2019-04-25T19:10:13.886Z,15.38
2019-04-25T19:12:40.211Z,15.24
2019-04-25T19:15:07.607Z,15.27
2019-04-25T19:17:34.593Z,15.09
2019-04-25T19:20:00.440Z,15.04
2019-04-25T19:22:26.349Z,15.01
2019-04-25T19:24:52.273Z,15.00
2019-04-25T19:27:23.926Z,15.00
2019-04-25T19:29:47.462Z,15.17
2019-04-25T19:32:13.309Z,15.14
2019-04-25T19:34:42.560Z,15.08
2019-04-25T19:37:08.713Z,15.03
2019-04-25T19:39:36.472Z,15.05
2019-04-25T19:42:19.273Z,15.18
2019-04-25T19:44:45.307Z,15.08
2019-04-25T19:47:11.366Z,14.98
2019-04-25T19:49:37.473Z,15.00
2019-04-25T19:52:03.519Z,15.04
2019-04-25T19:54:29.405Z,14.96
2019-04-25T19:56:56.510Z,15.00
2019-04-25T19:59:22.659Z,14.95
2019-04-25T20:01:50.605Z,14.99
2019-04-25T20:04:18.631Z,15.12
2019-04-25T20:07:03.069Z,14.95
2019-04-25T20:09:33.580Z,14.97
2019-04-25T20:11:59.539Z,14.95
2019-04-25T20:14:25.542Z,15.06
2019-04-25T20:16:51.766Z,15.17
2019-04-25T20:19:18.077Z,15.07
2019-04-25T20:21:44.586Z,15.12
2019-04-25T20:24:11.693Z,15.10
2019-04-25T20:26:37.632Z,15.08
2019-04-25T20:29:03.678Z,15.11
2019-04-25T20:31:29.559Z,15.00
2019-04-25T20:34:05.390Z,15.02
2019-04-25T20:36:23.329Z,15.09
2019-04-25T20:38:49.370Z,15.08
2019-04-25T20:41:15.294Z,15.09
2019-04-25T20:43:41.298Z,15.08
2019-04-25T20:46:07.379Z,15.03
2019-04-25T20:48:33.439Z,15.06
2019-04-25T20:50:59.375Z,15.11
2019-04-25T20:53:25.408Z,15.18
2019-04-25T20:55:51.446Z,15.26
2019-04-25T20:58:17.490Z,15.28
2019-04-25T21:00:45.699Z,15.38
2019-04-25T21:03:11.742Z,15.37
2019-04-25T21:05:37.804Z,15.44
2019-04-25T21:08:03.805Z,15.45
2019-04-25T21:10:29.637Z,15.60
2019-04-25T21:12:55.773Z,15.59
2019-04-25T21:15:35.327Z,15.67
2019-04-25T21:18:05.747Z,15.69
2019-04-25T21:20:31.741Z,15.78
2019-04-25T21:22:57.890Z,15.82
2019-04-25T21:25:23.928Z,15.90
2019-04-25T21:27:50.205Z,16.01
2019-04-25T21:30:17.394Z,15.94
2019-04-25T21:32:52.281Z,16.07
2019-04-25T21:35:19.929Z,16.15
2019-04-25T21:37:46.170Z,16.26
2019-04-25T21:40:26.645Z,16.29
2019-04-25T21:43:04.927Z,16.35
2019-04-25T21:45:31.890Z,16.31
2019-04-25T21:47:58.749Z,16.18
2019-04-25T21:50:25.113Z,16.05
2019-04-25T21:52:51.433Z,16.10
2019-04-25T21:55:17.608Z,16.09
2019-04-25T21:57:43.760Z,16.10
2019-04-25T22:00:14.812Z,16.14
2019-04-25T22:02:41.104Z,16.15
2019-04-25T22:05:07.439Z,16.13
2019-04-25T22:07:33.819Z,16.12
2019-04-25T22:10:00.294Z,16.14
2019-04-25T22:12:26.236Z,16.12
2019-04-25T22:14:52.260Z,16.06
2019-04-25T22:17:18.322Z,16.04
2019-04-25T22:19:44.572Z,15.94
2019-04-25T22:22:10.936Z,15.96
2019-04-25T22:24:36.907Z,16.01
2019-04-25T22:27:05.393Z,15.99
2019-04-25T22:29:33.147Z,15.96
2019-04-25T22:32:01.489Z,15.90
2019-04-25T22:34:29.973Z,15.90
2019-04-25T22:36:55.909Z,15.86
2019-04-25T22:39:21.786Z,15.92
2019-04-25T22:41:49.825Z,15.88
2019-04-25T22:44:17.766Z,15.88
2019-04-25T22:46:43.946Z,15.88
2019-04-25T22:49:10.081Z,15.85
2019-04-25T22:51:36.468Z,15.91
2019-04-25T22:54:03.817Z,15.90
2019-04-25T22:56:29.676Z,15.86
2019-04-25T22:58:55.729Z,15.89
2019-04-25T23:01:35.989Z,15.85
2019-04-25T23:04:03.829Z,15.84
2019-04-25T23:06:30.011Z,15.74
2019-04-25T23:08:55.894Z,15.66
2019-04-25T23:11:21.725Z,15.45
2019-04-25T23:13:47.763Z,15.39
2019-04-25T23:16:13.932Z,15.38
2019-04-25T23:18:39.770Z,15.46
2019-04-25T23:21:06.732Z,15.35
2019-04-25T23:23:32.671Z,15.31
2019-04-25T23:26:00.431Z,15.30
2019-04-25T23:28:31.342Z,15.25
2019-04-25T23:31:02.047Z,15.14
2019-04-25T23:33:27.894Z,15.11
2019-04-25T23:35:54.147Z,14.99
2019-04-25T23:38:19.969Z,14.95
2019-04-25T23:40:46.076Z,14.93
2019-04-25T23:43:12.467Z,14.81
2019-04-25T23:45:38.297Z,14.75
2019-04-25T23:48:04.176Z,14.66
2019-04-25T23:50:30.303Z,14.70
2019-04-25T23:52:56.126Z,14.77
2019-04-25T23:55:22.531Z,14.80
2019-04-25T23:57:48.547Z,14.86
